sensor_id;sensor_type;location;lat;lon;timestamp;temperature;humidity
20070;DHT22;10195;50.868;4.382;2023-09-12T00:00:56;22.60;99.90
20070;DHT22;10195;50.868;4.382;2023-09-12T00:03:23;22.60;99.90
20070;DHT22;10195;50.868;4.382;2023-09-12T00:08:18;22.40;99.90
20070;DHT22;10195;50.868;4.382;2023-09-12T00:10:43;22.40;99.90
20070;DHT22;10195;50.868;4.382;2023-09-12T00:13:09;22.60;99.90
20070;DHT22;10195;50.868;4.382;2023-09-12T00:15:34;22.60;99.90
20070;DHT22;10195;50.868;4.382;2023-09-12T00:18:00;22.60;99.90
20070;DHT22;10195;50.868;4.382;2023-09-12T00:20:26;22.60;99.90
20070;DHT22;10195;50.868;4.382;2023-09-12T00:22:51;22.60;99.90
20070;DHT22;10195;50.868;4.382;2023-09-12T00:25:18;22.50;99.90
20070;DHT22;10195;50.868;4.382;2023-09-12T00:27:44;22.30;99.90
20070;DHT22;10195;50.868;4.382;2023-09-12T00:30:10;22.20;99.90
20070;DHT22;10195;50.868;4.382;2023-09-12T00:32:36;22.20;99.90
20070;DHT22;10195;50.868;4.382;2023-09-12T00:35:01;22.30;99.90
20070;DHT22;10195;50.868;4.382;2023-09-12T00:37:27;22.20;99.90
20070;DHT22;10195;50.868;4.382;2023-09-12T00:39:52;22.30;99.90
20070;DHT22;10195;50.868;4.382;2023-09-12T00:42:19;22.40;99.90
20070;DHT22;10195;50.868;4.382;2023-09-12T00:44:44;22.40;99.90
20070;DHT22;10195;50.868;4.382;2023-09-12T00:47:11;22.50;99.90
20070;DHT22;10195;50.868;4.382;2023-09-12T00:49:38;22.50;99.90
20070;DHT22;10195;50.868;4.382;2023-09-12T00:52:04;22.40;99.90
20070;DHT22;10195;50.868;4.382;2023-09-12T00:54:30;22.30;99.90
20070;DHT22;10195;50.868;4.382;2023-09-12T00:56:56;22.40;99.90
20070;DHT22;10195;50.868;4.382;2023-09-12T00:59:22;22.40;99.90
20070;DHT22;10195;50.868;4.382;2023-09-12T01:01:48;22.20;99.90
20070;DHT22;10195;50.868;4.382;2023-09-12T01:04:14;22.30;99.90
20070;DHT22;10195;50.868;4.382;2023-09-12T01:06:40;22.40;99.90
20070;DHT22;10195;50.868;4.382;2023-09-12T01:09:05;22.20;99.90
20070;DHT22;10195;50.868;4.382;2023-09-12T01:11:31;22.20;99.90
20070;DHT22;10195;50.868;4.382;2023-09-12T01:13:57;22.10;99.90
20070;DHT22;10195;50.868;4.382;2023-09-12T01:16:23;22.00;99.90
20070;DHT22;10195;50.868;4.382;2023-09-12T01:18:49;22.10;99.90
20070;DHT22;10195;50.868;4.382;2023-09-12T01:27:18;22.00;99.90
20070;DHT22;10195;50.868;4.382;2023-09-12T01:29:46;22.10;99.90
20070;DHT22;10195;50.868;4.382;2023-09-12T01:32:14;21.90;99.90
20070;DHT22;10195;50.868;4.382;2023-09-12T01:34:40;21.90;99.90
20070;DHT22;10195;50.868;4.382;2023-09-12T01:37:05;21.80;99.90
20070;DHT22;10195;50.868;4.382;2023-09-12T01:39:31;21.80;99.90
20070;DHT22;10195;50.868;4.382;2023-09-12T01:41:58;21.80;99.90
20070;DHT22;10195;50.868;4.382;2023-09-12T01:44:25;21.60;99.90
20070;DHT22;10195;50.868;4.382;2023-09-12T01:46:53;21.60;99.90
20070;DHT22;10195;50.868;4.382;2023-09-12T01:49:21;21.60;99.90
20070;DHT22;10195;50.868;4.382;2023-09-12T01:51:48;21.60;99.90
20070;DHT22;10195;50.868;4.382;2023-09-12T01:54:14;21.50;99.90
20070;DHT22;10195;50.868;4.382;2023-09-12T01:56:40;21.40;99.90
20070;DHT22;10195;50.868;4.382;2023-09-12T01:59:07;21.30;99.90
20070;DHT22;10195;50.868;4.382;2023-09-12T02:01:32;21.20;99.90
20070;DHT22;10195;50.868;4.382;2023-09-12T02:03:58;21.20;99.90
20070;DHT22;10195;50.868;4.382;2023-09-12T02:09:46;21.10;99.90
20070;DHT22;10195;50.868;4.382;2023-09-12T02:12:11;21.10;99.90
20070;DHT22;10195;50.868;4.382;2023-09-12T02:14:37;21.10;99.90
20070;DHT22;10195;50.868;4.382;2023-09-12T02:17:03;21.10;99.90
20070;DHT22;10195;50.868;4.382;2023-09-12T02:19:29;21.00;99.90
20070;DHT22;10195;50.868;4.382;2023-09-12T02:21:54;20.80;99.90
20070;DHT22;10195;50.868;4.382;2023-09-12T02:24:20;20.80;99.90
20070;DHT22;10195;50.868;4.382;2023-09-12T02:26:47;20.70;99.90
20070;DHT22;10195;50.868;4.382;2023-09-12T02:29:12;20.80;99.90
20070;DHT22;10195;50.868;4.382;2023-09-12T02:31:38;20.80;99.90
20070;DHT22;10195;50.868;4.382;2023-09-12T02:34:03;20.80;99.90
20070;DHT22;10195;50.868;4.382;2023-09-12T02:36:29;20.70;99.90
20070;DHT22;10195;50.868;4.382;2023-09-12T02:38:54;20.60;99.90
20070;DHT22;10195;50.868;4.382;2023-09-12T02:41:20;20.60;99.90
20070;DHT22;10195;50.868;4.382;2023-09-12T02:43:46;20.60;99.90
20070;DHT22;10195;50.868;4.382;2023-09-12T02:46:11;20.50;99.90
20070;DHT22;10195;50.868;4.382;2023-09-12T02:48:37;20.50;99.90
20070;DHT22;10195;50.868;4.382;2023-09-12T02:51:02;20.50;99.90
20070;DHT22;10195;50.868;4.382;2023-09-12T02:53:28;20.60;99.90
20070;DHT22;10195;50.868;4.382;2023-09-12T02:55:57;20.80;99.90
20070;DHT22;10195;50.868;4.382;2023-09-12T02:58:22;21.10;99.90
20070;DHT22;10195;50.868;4.382;2023-09-12T03:00:48;21.10;99.90
20070;DHT22;10195;50.868;4.382;2023-09-12T03:03:15;21.20;99.90
20070;DHT22;10195;50.868;4.382;2023-09-12T03:05:42;21.20;99.90
20070;DHT22;10195;50.868;4.382;2023-09-12T03:08:11;21.20;99.90
20070;DHT22;10195;50.868;4.382;2023-09-12T03:10:37;21.20;99.90
20070;DHT22;10195;50.868;4.382;2023-09-12T03:13:02;21.40;99.90
20070;DHT22;10195;50.868;4.382;2023-09-12T03:15:28;21.40;99.90
20070;DHT22;10195;50.868;4.382;2023-09-12T03:17:54;21.40;99.90
20070;DHT22;10195;50.868;4.382;2023-09-12T03:20:19;21.40;99.90
20070;DHT22;10195;50.868;4.382;2023-09-12T03:22:45;21.60;99.90
20070;DHT22;10195;50.868;4.382;2023-09-12T03:25:11;21.70;99.90
20070;DHT22;10195;50.868;4.382;2023-09-12T03:27:39;21.80;99.90
20070;DHT22;10195;50.868;4.382;2023-09-12T03:30:05;21.80;99.90
20070;DHT22;10195;50.868;4.382;2023-09-12T03:32:31;21.90;99.90
20070;DHT22;10195;50.868;4.382;2023-09-12T03:34:57;21.90;99.90
20070;DHT22;10195;50.868;4.382;2023-09-12T03:37:22;21.90;99.90
20070;DHT22;10195;50.868;4.382;2023-09-12T03:39:52;21.70;99.90
20070;DHT22;10195;50.868;4.382;2023-09-12T03:42:18;21.50;99.90
20070;DHT22;10195;50.868;4.382;2023-09-12T03:44:43;21.60;99.90
20070;DHT22;10195;50.868;4.382;2023-09-12T03:47:09;21.70;99.90
20070;DHT22;10195;50.868;4.382;2023-09-12T03:49:34;21.80;99.90
20070;DHT22;10195;50.868;4.382;2023-09-12T03:52:00;21.70;99.90
20070;DHT22;10195;50.868;4.382;2023-09-12T03:54:26;21.40;99.90
20070;DHT22;10195;50.868;4.382;2023-09-12T03:56:51;21.30;99.90
20070;DHT22;10195;50.868;4.382;2023-09-12T03:59:17;21.10;99.90
20070;DHT22;10195;50.868;4.382;2023-09-12T04:01:42;21.10;99.90
20070;DHT22;10195;50.868;4.382;2023-09-12T04:04:08;21.10;99.90
20070;DHT22;10195;50.868;4.382;2023-09-12T04:06:34;21.30;99.90
20070;DHT22;10195;50.868;4.382;2023-09-12T04:08:59;21.50;99.90
20070;DHT22;10195;50.868;4.382;2023-09-12T04:11:25;21.60;99.90
20070;DHT22;10195;50.868;4.382;2023-09-12T04:13:51;21.70;99.90
20070;DHT22;10195;50.868;4.382;2023-09-12T04:16:16;21.70;99.90
20070;DHT22;10195;50.868;4.382;2023-09-12T04:18:42;21.60;99.90
20070;DHT22;10195;50.868;4.382;2023-09-12T04:21:08;21.60;99.90
20070;DHT22;10195;50.868;4.382;2023-09-12T04:23:33;21.80;99.90
20070;DHT22;10195;50.868;4.382;2023-09-12T04:25:59;21.80;99.90
20070;DHT22;10195;50.868;4.382;2023-09-12T04:28:28;21.80;99.90
20070;DHT22;10195;50.868;4.382;2023-09-12T04:31:01;21.70;99.90
20070;DHT22;10195;50.868;4.382;2023-09-12T04:33:27;21.70;99.90
20070;DHT22;10195;50.868;4.382;2023-09-12T04:35:53;21.80;99.90
20070;DHT22;10195;50.868;4.382;2023-09-12T04:38:18;21.80;99.90
20070;DHT22;10195;50.868;4.382;2023-09-12T04:40:53;21.90;99.90
20070;DHT22;10195;50.868;4.382;2023-09-12T04:43:19;21.90;99.90
20070;DHT22;10195;50.868;4.382;2023-09-12T04:45:45;21.80;99.90
20070;DHT22;10195;50.868;4.382;2023-09-12T04:48:10;21.60;99.90
20070;DHT22;10195;50.868;4.382;2023-09-12T04:50:41;21.60;99.90
20070;DHT22;10195;50.868;4.382;2023-09-12T04:53:07;21.60;99.90
20070;DHT22;10195;50.868;4.382;2023-09-12T04:55:35;21.70;99.90
20070;DHT22;10195;50.868;4.382;2023-09-12T04:58:01;21.70;99.90
20070;DHT22;10195;50.868;4.382;2023-09-12T05:00:27;21.60;99.90
20070;DHT22;10195;50.868;4.382;2023-09-12T05:02:52;21.60;99.90
20070;DHT22;10195;50.868;4.382;2023-09-12T05:05:18;21.50;99.90
20070;DHT22;10195;50.868;4.382;2023-09-12T05:07:44;21.50;99.90
20070;DHT22;10195;50.868;4.382;2023-09-12T05:10:10;21.60;99.90
20070;DHT22;10195;50.868;4.382;2023-09-12T05:12:35;21.60;99.90
20070;DHT22;10195;50.868;4.382;2023-09-12T05:15:01;21.40;99.90
20070;DHT22;10195;50.868;4.382;2023-09-12T05:17:27;21.50;99.90
20070;DHT22;10195;50.868;4.382;2023-09-12T05:19:53;21.60;99.90
20070;DHT22;10195;50.868;4.382;2023-09-12T05:22:19;21.70;99.90
20070;DHT22;10195;50.868;4.382;2023-09-12T05:24:45;21.70;99.90
20070;DHT22;10195;50.868;4.382;2023-09-12T05:27:11;21.70;99.90
20070;DHT22;10195;50.868;4.382;2023-09-12T05:29:37;21.80;99.90
20070;DHT22;10195;50.868;4.382;2023-09-12T05:32:04;21.80;99.90
20070;DHT22;10195;50.868;4.382;2023-09-12T05:34:29;21.90;99.90
20070;DHT22;10195;50.868;4.382;2023-09-12T05:36:56;21.90;99.90
20070;DHT22;10195;50.868;4.382;2023-09-12T05:39:22;21.80;99.90
20070;DHT22;10195;50.868;4.382;2023-09-12T05:41:48;21.70;99.90
20070;DHT22;10195;50.868;4.382;2023-09-12T05:44:14;21.70;99.90
20070;DHT22;10195;50.868;4.382;2023-09-12T05:46:47;21.70;99.90
20070;DHT22;10195;50.868;4.382;2023-09-12T05:49:14;21.60;99.90
20070;DHT22;10195;50.868;4.382;2023-09-12T05:51:40;21.60;99.90
20070;DHT22;10195;50.868;4.382;2023-09-12T05:54:06;21.40;99.90
20070;DHT22;10195;50.868;4.382;2023-09-12T05:56:33;21.30;99.90
20070;DHT22;10195;50.868;4.382;2023-09-12T05:58:59;21.20;99.90
20070;DHT22;10195;50.868;4.382;2023-09-12T06:01:25;21.20;99.90
20070;DHT22;10195;50.868;4.382;2023-09-12T06:03:51;21.20;99.90
20070;DHT22;10195;50.868;4.382;2023-09-12T06:06:16;21.10;99.90
20070;DHT22;10195;50.868;4.382;2023-09-12T06:08:42;21.00;99.90
20070;DHT22;10195;50.868;4.382;2023-09-12T06:11:08;21.00;99.90
20070;DHT22;10195;50.868;4.382;2023-09-12T06:13:33;21.00;99.90
20070;DHT22;10195;50.868;4.382;2023-09-12T06:16:03;20.90;99.90
20070;DHT22;10195;50.868;4.382;2023-09-12T06:18:29;20.70;99.90
20070;DHT22;10195;50.868;4.382;2023-09-12T06:20:57;20.60;99.90
20070;DHT22;10195;50.868;4.382;2023-09-12T06:23:23;20.70;99.90
20070;DHT22;10195;50.868;4.382;2023-09-12T06:25:49;20.70;99.90
20070;DHT22;10195;50.868;4.382;2023-09-12T06:28:28;20.70;99.90
20070;DHT22;10195;50.868;4.382;2023-09-12T06:30:54;21.00;99.90
20070;DHT22;10195;50.868;4.382;2023-09-12T06:33:20;21.10;99.90
20070;DHT22;10195;50.868;4.382;2023-09-12T06:35:49;21.00;99.90
20070;DHT22;10195;50.868;4.382;2023-09-12T06:38:16;21.00;99.90
20070;DHT22;10195;50.868;4.382;2023-09-12T06:40:45;20.90;99.90
20070;DHT22;10195;50.868;4.382;2023-09-12T06:43:12;21.10;99.90
20070;DHT22;10195;50.868;4.382;2023-09-12T06:45:40;21.20;99.90
20070;DHT22;10195;50.868;4.382;2023-09-12T06:48:06;21.30;99.90
20070;DHT22;10195;50.868;4.382;2023-09-12T06:50:32;21.50;99.90
20070;DHT22;10195;50.868;4.382;2023-09-12T06:52:57;21.30;99.90
20070;DHT22;10195;50.868;4.382;2023-09-12T06:55:24;21.40;99.90
20070;DHT22;10195;50.868;4.382;2023-09-12T06:57:50;21.50;99.90
20070;DHT22;10195;50.868;4.382;2023-09-12T07:00:15;21.60;99.90
20070;DHT22;10195;50.868;4.382;2023-09-12T07:02:42;21.50;99.90
20070;DHT22;10195;50.868;4.382;2023-09-12T07:05:08;21.30;99.90
20070;DHT22;10195;50.868;4.382;2023-09-12T07:07:34;21.40;99.90
20070;DHT22;10195;50.868;4.382;2023-09-12T07:09:59;21.50;99.90
20070;DHT22;10195;50.868;4.382;2023-09-12T07:12:26;21.70;99.90
20070;DHT22;10195;50.868;4.382;2023-09-12T07:14:54;21.60;99.90
20070;DHT22;10195;50.868;4.382;2023-09-12T07:17:21;21.60;99.90
20070;DHT22;10195;50.868;4.382;2023-09-12T07:19:47;21.70;99.90
20070;DHT22;10195;50.868;4.382;2023-09-12T07:22:12;21.80;99.90
20070;DHT22;10195;50.868;4.382;2023-09-12T07:24:38;21.90;99.90
20070;DHT22;10195;50.868;4.382;2023-09-12T07:27:04;21.90;99.90
20070;DHT22;10195;50.868;4.382;2023-09-12T07:29:29;22.00;99.90
20070;DHT22;10195;50.868;4.382;2023-09-12T07:31:55;22.00;99.90
20070;DHT22;10195;50.868;4.382;2023-09-12T07:34:21;21.90;99.90
20070;DHT22;10195;50.868;4.382;2023-09-12T07:36:46;22.00;99.90
20070;DHT22;10195;50.868;4.382;2023-09-12T07:39:12;22.20;99.90
20070;DHT22;10195;50.868;4.382;2023-09-12T07:41:38;22.20;99.90
20070;DHT22;10195;50.868;4.382;2023-09-12T07:44:04;22.70;99.90
20070;DHT22;10195;50.868;4.382;2023-09-12T07:46:30;23.20;99.90
20070;DHT22;10195;50.868;4.382;2023-09-12T07:48:56;23.60;99.90
20070;DHT22;10195;50.868;4.382;2023-09-12T07:51:23;24.00;99.90
20070;DHT22;10195;50.868;4.382;2023-09-12T07:53:49;24.10;99.90
20070;DHT22;10195;50.868;4.382;2023-09-12T07:56:15;24.10;99.90
20070;DHT22;10195;50.868;4.382;2023-09-12T07:58:41;24.10;99.90
20070;DHT22;10195;50.868;4.382;2023-09-12T08:01:07;23.80;99.90
20070;DHT22;10195;50.868;4.382;2023-09-12T08:03:34;23.80;99.90
20070;DHT22;10195;50.868;4.382;2023-09-12T08:06:00;24.10;99.90
20070;DHT22;10195;50.868;4.382;2023-09-12T08:08:27;24.50;99.90
20070;DHT22;10195;50.868;4.382;2023-09-12T08:10:52;24.90;99.90
20070;DHT22;10195;50.868;4.382;2023-09-12T08:13:18;25.40;99.90
20070;DHT22;10195;50.868;4.382;2023-09-12T08:15:44;26.60;99.90
20070;DHT22;10195;50.868;4.382;2023-09-12T08:18:10;27.80;99.90
20070;DHT22;10195;50.868;4.382;2023-09-12T08:20:36;28.00;99.90
20070;DHT22;10195;50.868;4.382;2023-09-12T08:23:01;28.40;99.90
20070;DHT22;10195;50.868;4.382;2023-09-12T08:25:27;29.10;99.90
20070;DHT22;10195;50.868;4.382;2023-09-12T08:27:53;29.40;99.90
20070;DHT22;10195;50.868;4.382;2023-09-12T08:30:18;29.30;99.90
20070;DHT22;10195;50.868;4.382;2023-09-12T08:32:44;29.10;99.90
20070;DHT22;10195;50.868;4.382;2023-09-12T08:35:13;29.40;99.90
20070;DHT22;10195;50.868;4.382;2023-09-12T08:37:42;30.10;99.90
20070;DHT22;10195;50.868;4.382;2023-09-12T08:40:10;30.70;99.90
20070;DHT22;10195;50.868;4.382;2023-09-12T08:42:45;30.70;99.90
20070;DHT22;10195;50.868;4.382;2023-09-12T08:45:18;30.40;99.90
20070;DHT22;10195;50.868;4.382;2023-09-12T08:47:53;30.60;99.90
20070;DHT22;10195;50.868;4.382;2023-09-12T08:50:20;31.20;99.90
20070;DHT22;10195;50.868;4.382;2023-09-12T08:52:47;31.70;99.90
20070;DHT22;10195;50.868;4.382;2023-09-12T08:55:13;32.20;99.90
20070;DHT22;10195;50.868;4.382;2023-09-12T08:57:41;31.80;99.90
20070;DHT22;10195;50.868;4.382;2023-09-12T09:00:10;31.20;99.90
20070;DHT22;10195;50.868;4.382;2023-09-12T09:02:43;31.30;99.90
20070;DHT22;10195;50.868;4.382;2023-09-12T09:05:10;31.00;99.90
20070;DHT22;10195;50.868;4.382;2023-09-12T09:07:37;31.00;99.90
20070;DHT22;10195;50.868;4.382;2023-09-12T09:10:05;30.50;99.90
20070;DHT22;10195;50.868;4.382;2023-09-12T09:12:32;29.90;99.90
20070;DHT22;10195;50.868;4.382;2023-09-12T09:14:58;30.00;99.90
20070;DHT22;10195;50.868;4.382;2023-09-12T09:17:23;30.10;99.90
20070;DHT22;10195;50.868;4.382;2023-09-12T09:19:49;30.30;99.90
20070;DHT22;10195;50.868;4.382;2023-09-12T09:22:15;30.80;99.90
20070;DHT22;10195;50.868;4.382;2023-09-12T09:24:41;30.70;99.90
20070;DHT22;10195;50.868;4.382;2023-09-12T09:27:07;30.90;99.90
20070;DHT22;10195;50.868;4.382;2023-09-12T09:29:46;31.70;99.90
20070;DHT22;10195;50.868;4.382;2023-09-12T09:32:17;29.90;99.90
20070;DHT22;10195;50.868;4.382;2023-09-12T09:34:43;30.10;99.90
20070;DHT22;10195;50.868;4.382;2023-09-12T09:37:09;30.50;99.90
20070;DHT22;10195;50.868;4.382;2023-09-12T09:39:35;31.60;99.90
20070;DHT22;10195;50.868;4.382;2023-09-12T09:42:01;31.40;99.90
20070;DHT22;10195;50.868;4.382;2023-09-12T09:44:27;31.70;99.90
20070;DHT22;10195;50.868;4.382;2023-09-12T09:47:02;32.00;99.90
20070;DHT22;10195;50.868;4.382;2023-09-12T09:49:31;32.30;99.90
20070;DHT22;10195;50.868;4.382;2023-09-12T09:51:57;32.90;99.90
20070;DHT22;10195;50.868;4.382;2023-09-12T09:54:25;32.40;99.90
20070;DHT22;10195;50.868;4.382;2023-09-12T09:56:55;32.80;99.90
20070;DHT22;10195;50.868;4.382;2023-09-12T09:59:22;32.50;99.90
20070;DHT22;10195;50.868;4.382;2023-09-12T10:01:49;32.70;99.90
20070;DHT22;10195;50.868;4.382;2023-09-12T10:04:18;32.20;99.90
20070;DHT22;10195;50.868;4.382;2023-09-12T10:06:45;32.40;99.90
20070;DHT22;10195;50.868;4.382;2023-09-12T10:09:12;31.90;99.90
20070;DHT22;10195;50.868;4.382;2023-09-12T10:11:43;32.10;99.90
20070;DHT22;10195;50.868;4.382;2023-09-12T10:14:09;31.80;99.90
20070;DHT22;10195;50.868;4.382;2023-09-12T10:16:45;31.30;99.90
20070;DHT22;10195;50.868;4.382;2023-09-12T10:19:17;31.00;99.90
20070;DHT22;10195;50.868;4.382;2023-09-12T10:21:53;31.30;99.90
20070;DHT22;10195;50.868;4.382;2023-09-12T10:24:21;31.10;99.90
20070;DHT22;10195;50.868;4.382;2023-09-12T10:26:50;30.70;99.90
20070;DHT22;10195;50.868;4.382;2023-09-12T10:29:16;29.70;99.90
20070;DHT22;10195;50.868;4.382;2023-09-12T10:31:42;29.30;99.90
20070;DHT22;10195;50.868;4.382;2023-09-12T10:34:08;28.60;99.90
20070;DHT22;10195;50.868;4.382;2023-09-12T10:36:40;27.50;99.90
20070;DHT22;10195;50.868;4.382;2023-09-12T10:39:07;26.60;99.90
20070;DHT22;10195;50.868;4.382;2023-09-12T10:41:35;26.30;99.90
20070;DHT22;10195;50.868;4.382;2023-09-12T10:44:01;26.60;99.90
20070;DHT22;10195;50.868;4.382;2023-09-12T10:46:28;26.70;99.90
20070;DHT22;10195;50.868;4.382;2023-09-12T10:48:54;26.70;99.90
20070;DHT22;10195;50.868;4.382;2023-09-12T10:51:20;26.30;99.90
20070;DHT22;10195;50.868;4.382;2023-09-12T10:53:47;26.40;99.90
20070;DHT22;10195;50.868;4.382;2023-09-12T10:56:20;26.00;99.90
20070;DHT22;10195;50.868;4.382;2023-09-12T11:01:42;25.80;99.90
20070;DHT22;10195;50.868;4.382;2023-09-12T11:06:48;26.60;99.90
20070;DHT22;10195;50.868;4.382;2023-09-12T11:11:47;27.40;99.90
20070;DHT22;10195;50.868;4.382;2023-09-12T11:14:13;27.70;99.90
20070;DHT22;10195;50.868;4.382;2023-09-12T11:16:41;28.10;99.90
20070;DHT22;10195;50.868;4.382;2023-09-12T11:19:22;28.40;99.90
20070;DHT22;10195;50.868;4.382;2023-09-12T11:21:53;28.60;99.90
20070;DHT22;10195;50.868;4.382;2023-09-12T11:24:20;27.90;99.90
20070;DHT22;10195;50.868;4.382;2023-09-12T11:26:57;27.60;99.90
20070;DHT22;10195;50.868;4.382;2023-09-12T11:29:34;28.00;99.90
20070;DHT22;10195;50.868;4.382;2023-09-12T11:32:01;28.10;99.90
20070;DHT22;10195;50.868;4.382;2023-09-12T11:34:42;28.40;99.90
20070;DHT22;10195;50.868;4.382;2023-09-12T11:37:09;28.50;99.90
20070;DHT22;10195;50.868;4.382;2023-09-12T11:39:39;28.60;99.90
20070;DHT22;10195;50.868;4.382;2023-09-12T11:42:07;28.40;99.90
20070;DHT22;10195;50.868;4.382;2023-09-12T11:44:36;28.10;99.90
20070;DHT22;10195;50.868;4.382;2023-09-12T11:47:02;27.70;99.90
20070;DHT22;10195;50.868;4.382;2023-09-12T11:49:36;27.60;99.90
20070;DHT22;10195;50.868;4.382;2023-09-12T11:52:03;27.70;99.90
20070;DHT22;10195;50.868;4.382;2023-09-12T11:54:33;28.10;99.90
20070;DHT22;10195;50.868;4.382;2023-09-12T11:56:58;28.20;99.90
20070;DHT22;10195;50.868;4.382;2023-09-12T11:59:26;27.80;99.90
20070;DHT22;10195;50.868;4.382;2023-09-12T12:01:52;27.70;99.90
20070;DHT22;10195;50.868;4.382;2023-09-12T12:04:20;28.10;99.90
20070;DHT22;10195;50.868;4.382;2023-09-12T12:06:47;28.40;99.90
20070;DHT22;10195;50.868;4.382;2023-09-12T12:09:13;28.40;99.90
20070;DHT22;10195;50.868;4.382;2023-09-12T12:11:41;28.20;99.90
20070;DHT22;10195;50.868;4.382;2023-09-12T12:14:16;28.20;99.90
20070;DHT22;10195;50.868;4.382;2023-09-12T12:16:43;28.30;99.90
20070;DHT22;10195;50.868;4.382;2023-09-12T12:19:10;28.10;99.90
20070;DHT22;10195;50.868;4.382;2023-09-12T12:21:40;28.00;99.90
20070;DHT22;10195;50.868;4.382;2023-09-12T12:24:15;27.90;99.90
20070;DHT22;10195;50.868;4.382;2023-09-12T12:26:43;27.90;99.90
20070;DHT22;10195;50.868;4.382;2023-09-12T12:29:09;27.10;99.90
20070;DHT22;10195;50.868;4.382;2023-09-12T12:31:39;26.60;99.90
20070;DHT22;10195;50.868;4.382;2023-09-12T12:34:05;26.80;99.90
20070;DHT22;10195;50.868;4.382;2023-09-12T12:36:31;26.60;99.90
20070;DHT22;10195;50.868;4.382;2023-09-12T12:38:57;26.30;99.90
20070;DHT22;10195;50.868;4.382;2023-09-12T12:41:25;26.10;99.90
20070;DHT22;10195;50.868;4.382;2023-09-12T12:43:52;26.10;99.90
20070;DHT22;10195;50.868;4.382;2023-09-12T12:46:17;26.00;99.90
20070;DHT22;10195;50.868;4.382;2023-09-12T12:48:45;26.10;99.90
20070;DHT22;10195;50.868;4.382;2023-09-12T12:51:21;26.20;99.90
20070;DHT22;10195;50.868;4.382;2023-09-12T12:54:04;25.90;99.90
20070;DHT22;10195;50.868;4.382;2023-09-12T12:56:31;25.60;99.90
20070;DHT22;10195;50.868;4.382;2023-09-12T12:58:58;25.50;99.90
20070;DHT22;10195;50.868;4.382;2023-09-12T13:01:26;25.70;99.90
20070;DHT22;10195;50.868;4.382;2023-09-12T13:03:51;25.70;99.90
20070;DHT22;10195;50.868;4.382;2023-09-12T13:06:18;25.70;99.90
20070;DHT22;10195;50.868;4.382;2023-09-12T13:08:45;25.80;99.90
20070;DHT22;10195;50.868;4.382;2023-09-12T13:11:13;25.90;99.90
20070;DHT22;10195;50.868;4.382;2023-09-12T13:13:42;26.00;99.90
20070;DHT22;10195;50.868;4.382;2023-09-12T13:16:09;26.00;99.90
20070;DHT22;10195;50.868;4.382;2023-09-12T13:18:36;25.80;99.90
20070;DHT22;10195;50.868;4.382;2023-09-12T13:21:03;25.70;99.90
20070;DHT22;10195;50.868;4.382;2023-09-12T13:23:29;25.90;99.90
20070;DHT22;10195;50.868;4.382;2023-09-12T13:25:56;25.80;99.90
20070;DHT22;10195;50.868;4.382;2023-09-12T13:28:22;25.70;99.90
20070;DHT22;10195;50.868;4.382;2023-09-12T13:30:54;25.50;99.90
20070;DHT22;10195;50.868;4.382;2023-09-12T13:33:20;25.50;99.90
20070;DHT22;10195;50.868;4.382;2023-09-12T13:35:48;25.70;99.90
20070;DHT22;10195;50.868;4.382;2023-09-12T13:38:14;26.00;99.90
20070;DHT22;10195;50.868;4.382;2023-09-12T13:40:42;26.10;99.90
20070;DHT22;10195;50.868;4.382;2023-09-12T13:43:11;26.00;99.90
20070;DHT22;10195;50.868;4.382;2023-09-12T13:45:38;25.70;99.90
20070;DHT22;10195;50.868;4.382;2023-09-12T13:48:04;25.60;99.90
20070;DHT22;10195;50.868;4.382;2023-09-12T13:50:30;25.80;99.90
20070;DHT22;10195;50.868;4.382;2023-09-12T13:52:58;25.60;99.90
20070;DHT22;10195;50.868;4.382;2023-09-12T13:55:25;25.40;99.90
20070;DHT22;10195;50.868;4.382;2023-09-12T13:57:51;25.40;99.90
20070;DHT22;10195;50.868;4.382;2023-09-12T14:00:16;25.60;99.90
20070;DHT22;10195;50.868;4.382;2023-09-12T14:02:42;25.70;99.90
20070;DHT22;10195;50.868;4.382;2023-09-12T14:05:09;25.50;99.90
20070;DHT22;10195;50.868;4.382;2023-09-12T14:07:36;25.50;99.90
20070;DHT22;10195;50.868;4.382;2023-09-12T14:10:02;25.60;99.90
20070;DHT22;10195;50.868;4.382;2023-09-12T14:12:28;25.60;99.90
20070;DHT22;10195;50.868;4.382;2023-09-12T14:14:54;25.50;99.90
20070;DHT22;10195;50.868;4.382;2023-09-12T14:17:20;25.30;99.90
20070;DHT22;10195;50.868;4.382;2023-09-12T14:19:47;25.10;99.90
20070;DHT22;10195;50.868;4.382;2023-09-12T14:22:12;25.10;99.90
20070;DHT22;10195;50.868;4.382;2023-09-12T14:24:38;25.00;99.90
20070;DHT22;10195;50.868;4.382;2023-09-12T14:27:04;24.80;99.90
20070;DHT22;10195;50.868;4.382;2023-09-12T14:29:30;24.70;99.90
20070;DHT22;10195;50.868;4.382;2023-09-12T14:31:56;24.60;99.90
20070;DHT22;10195;50.868;4.382;2023-09-12T14:34:25;24.70;99.90
20070;DHT22;10195;50.868;4.382;2023-09-12T14:36:54;24.70;99.90
20070;DHT22;10195;50.868;4.382;2023-09-12T14:39:20;24.70;99.90
20070;DHT22;10195;50.868;4.382;2023-09-12T14:41:46;24.70;99.90
20070;DHT22;10195;50.868;4.382;2023-09-12T14:44:25;24.70;99.90
20070;DHT22;10195;50.868;4.382;2023-09-12T14:46:51;24.70;99.90
20070;DHT22;10195;50.868;4.382;2023-09-12T14:49:17;24.50;99.90
20070;DHT22;10195;50.868;4.382;2023-09-12T14:51:43;24.40;99.90
20070;DHT22;10195;50.868;4.382;2023-09-12T14:54:09;24.20;99.90
20070;DHT22;10195;50.868;4.382;2023-09-12T14:56:35;24.30;99.90
20070;DHT22;10195;50.868;4.382;2023-09-12T14:59:03;24.20;99.90
20070;DHT22;10195;50.868;4.382;2023-09-12T15:01:29;24.30;99.90
20070;DHT22;10195;50.868;4.382;2023-09-12T15:03:55;24.30;99.90
20070;DHT22;10195;50.868;4.382;2023-09-12T15:06:22;24.30;99.90
20070;DHT22;10195;50.868;4.382;2023-09-12T15:08:48;24.30;99.90
20070;DHT22;10195;50.868;4.382;2023-09-12T15:11:14;24.20;99.90
20070;DHT22;10195;50.868;4.382;2023-09-12T15:13:39;24.30;99.90
20070;DHT22;10195;50.868;4.382;2023-09-12T15:16:05;24.30;99.90
20070;DHT22;10195;50.868;4.382;2023-09-12T15:18:31;24.30;99.90
20070;DHT22;10195;50.868;4.382;2023-09-12T15:20:57;24.20;99.90
20070;DHT22;10195;50.868;4.382;2023-09-12T15:23:23;24.10;99.90
20070;DHT22;10195;50.868;4.382;2023-09-12T15:25:52;24.00;99.90
20070;DHT22;10195;50.868;4.382;2023-09-12T15:28:18;24.10;99.90
20070;DHT22;10195;50.868;4.382;2023-09-12T15:30:44;24.10;99.90
20070;DHT22;10195;50.868;4.382;2023-09-12T15:33:10;24.10;99.90
20070;DHT22;10195;50.868;4.382;2023-09-12T15:35:35;24.10;99.90
20070;DHT22;10195;50.868;4.382;2023-09-12T15:38:01;24.10;99.90
20070;DHT22;10195;50.868;4.382;2023-09-12T15:40:27;24.00;99.90
20070;DHT22;10195;50.868;4.382;2023-09-12T15:42:53;24.10;99.90
20070;DHT22;10195;50.868;4.382;2023-09-12T15:45:19;24.10;99.90
20070;DHT22;10195;50.868;4.382;2023-09-12T15:47:46;24.10;99.90